createdAt,value
2019-02-16T00:01:59.808Z,9.07
2019-02-16T00:04:26.653Z,9.67
2019-02-16T00:06:53.595Z,9.27
2019-02-16T00:09:20.334Z,8.60
2019-02-16T00:11:47.779Z,8.80
2019-02-16T00:14:14.638Z,9.07
2019-02-16T00:16:41.480Z,8.67
2019-02-16T00:19:08.938Z,8.77
2019-02-16T00:21:35.803Z,9.07
2019-02-16T00:24:02.623Z,8.40
2019-02-16T00:26:29.467Z,9.10
2019-02-16T00:28:56.307Z,8.87
2019-02-16T00:31:23.869Z,8.30
2019-02-16T00:33:50.781Z,8.57
2019-02-16T00:36:17.653Z,8.30
2019-02-16T00:38:44.662Z,8.63
2019-02-16T00:41:11.401Z,8.27
2019-02-16T00:43:38.477Z,7.70
2019-02-16T00:46:06.339Z,8.00
2019-02-16T00:48:33.856Z,7.07
2019-02-16T00:51:02.850Z,7.93
2019-02-16T00:53:29.670Z,7.40
2019-02-16T00:55:57.011Z,7.60
2019-02-16T00:58:25.934Z,7.50
2019-02-16T01:00:52.779Z,7.90
2019-02-16T01:03:19.743Z,8.20
2019-02-16T01:05:46.576Z,7.43
2019-02-16T01:08:14.007Z,7.73
2019-02-16T01:10:40.711Z,8.27
2019-02-16T01:13:08.805Z,8.20
2019-02-16T01:15:36.515Z,8.40
2019-02-16T01:18:04.842Z,8.07
2019-02-16T01:20:31.664Z,8.73
2019-02-16T01:22:58.376Z,8.57
2019-02-16T01:25:25.049Z,8.80
2019-02-16T01:27:53.484Z,8.57
2019-02-16T01:30:20.214Z,8.80
2019-02-16T01:32:48.081Z,8.47
2019-02-16T01:35:15.517Z,9.73
2019-02-16T01:37:42.260Z,9.27
2019-02-16T01:40:09.032Z,9.63
2019-02-16T01:42:35.973Z,9.93
2019-02-16T01:45:03.340Z,10.17
2019-02-16T01:47:30.053Z,10.37
2019-02-16T01:49:56.725Z,9.93
2019-02-16T01:52:24.920Z,10.30
2019-02-16T01:54:52.359Z,11.40
2019-02-16T01:57:19.210Z,11.20
2019-02-16T01:59:46.738Z,11.37
2019-02-16T02:02:13.495Z,11.43
2019-02-16T02:04:40.459Z,11.03
2019-02-16T02:07:09.039Z,11.00
2019-02-16T02:09:36.554Z,10.63
2019-02-16T02:12:04.927Z,10.67
2019-02-16T02:14:32.086Z,10.80
2019-02-16T02:16:58.961Z,11.37
2019-02-16T02:19:26.470Z,11.43
2019-02-16T02:21:53.484Z,11.17
2019-02-16T02:24:20.210Z,11.37
2019-02-16T02:26:47.492Z,11.43
2019-02-16T02:29:14.189Z,12.93
2019-02-16T02:31:41.630Z,12.00
2019-02-16T02:34:11.374Z,12.07
2019-02-16T02:36:38.859Z,11.53
2019-02-16T02:39:05.845Z,12.53
2019-02-16T02:41:32.711Z,11.80
2019-02-16T02:43:59.452Z,11.23
2019-02-16T02:46:26.208Z,12.40
2019-02-16T02:48:54.585Z,11.63
2019-02-16T02:51:21.412Z,12.90
2019-02-16T02:53:48.241Z,11.30
2019-02-16T02:56:14.942Z,11.40
2019-02-16T02:58:41.637Z,11.47
2019-02-16T03:01:08.832Z,10.90
2019-02-16T03:03:38.077Z,11.10
2019-02-16T03:06:04.815Z,11.50
2019-02-16T03:08:31.715Z,10.00
2019-02-16T03:10:58.388Z,10.63
2019-02-16T03:13:25.641Z,11.23
2019-02-16T03:15:52.394Z,11.67
2019-02-16T03:18:22.196Z,11.07
2019-02-16T03:20:49.352Z,11.43
2019-02-16T03:23:16.522Z,11.47
2019-02-16T03:25:56.289Z,10.80
2019-02-16T03:28:30.636Z,10.80
2019-02-16T03:31:10.723Z,11.10
2019-02-16T03:33:43.306Z,10.13
2019-02-16T03:36:14.034Z,10.83
2019-02-16T03:38:45.808Z,10.80
2019-02-16T03:41:12.484Z,10.67
2019-02-16T03:43:40.358Z,10.80
2019-02-16T03:46:07.347Z,10.23
2019-02-16T03:48:34.465Z,11.50
2019-02-16T03:51:02.885Z,11.00
2019-02-16T03:53:29.656Z,10.67
2019-02-16T03:55:57.281Z,10.33
2019-02-16T03:58:24.031Z,11.13
2019-02-16T04:00:50.758Z,10.60
2019-02-16T04:03:17.895Z,10.53
2019-02-16T04:05:47.501Z,11.10
2019-02-16T04:08:14.192Z,10.33
2019-02-16T04:10:42.156Z,10.73
2019-02-16T04:13:09.670Z,10.73
2019-02-16T04:15:36.658Z,10.13
2019-02-16T04:18:03.883Z,10.47
2019-02-16T04:20:34.846Z,10.67
2019-02-16T04:23:02.319Z,11.10
2019-02-16T04:25:29.059Z,10.20
2019-02-16T04:27:57.045Z,11.23
2019-02-16T04:30:23.725Z,11.50
2019-02-16T04:32:50.927Z,10.67
2019-02-16T04:35:17.923Z,9.77
2019-02-16T04:40:22.549Z,10.47
2019-02-16T04:42:49.234Z,11.07
2019-02-16T04:45:16.656Z,11.00
2019-02-16T04:47:44.548Z,10.33
2019-02-16T04:50:11.206Z,10.20
2019-02-16T04:52:39.607Z,10.30
2019-02-16T04:55:06.835Z,10.53
2019-02-16T04:57:33.801Z,9.77
2019-02-16T05:00:01.521Z,10.13
2019-02-16T05:02:29.358Z,10.33
2019-02-16T05:04:56.079Z,10.03
2019-02-16T05:07:23.147Z,10.27
2019-02-16T05:09:50.416Z,10.53
2019-02-16T05:12:17.357Z,9.50
2019-02-16T05:14:46.165Z,10.33
2019-02-16T05:17:13.887Z,9.83
2019-02-16T05:19:40.652Z,9.87
2019-02-16T05:22:07.765Z,9.97
2019-02-16T05:24:36.082Z,9.03
2019-02-16T05:27:02.867Z,9.67
2019-02-16T05:29:37.710Z,10.10
2019-02-16T05:32:05.007Z,9.40
2019-02-16T05:34:32.441Z,9.17
2019-02-16T05:36:59.777Z,9.50
2019-02-16T05:39:27.450Z,9.87
2019-02-16T05:41:54.112Z,10.30
2019-02-16T05:44:20.952Z,9.27
2019-02-16T05:46:48.698Z,9.80
2019-02-16T05:49:15.360Z,9.20
2019-02-16T05:51:42.432Z,9.13
2019-02-16T05:54:09.925Z,9.20
2019-02-16T05:56:36.608Z,9.97
2019-02-16T05:59:03.572Z,9.03
2019-02-16T06:01:31.720Z,10.10
2019-02-16T06:03:58.457Z,9.43
2019-02-16T06:06:25.570Z,9.77
2019-02-16T06:08:52.326Z,9.70
2019-02-16T06:11:26.427Z,10.27
2019-02-16T06:13:53.171Z,9.37
2019-02-16T06:16:19.926Z,9.70
2019-02-16T06:18:46.633Z,8.77
2019-02-16T06:21:13.909Z,10.00
2019-02-16T06:23:41.784Z,9.53
2019-02-16T06:26:09.283Z,9.53
2019-02-16T06:28:36.171Z,9.20
2019-02-16T06:31:02.990Z,9.47
2019-02-16T06:33:30.525Z,10.17
2019-02-16T06:35:58.971Z,9.90
2019-02-16T06:38:28.731Z,10.50
2019-02-16T06:40:55.405Z,9.87
2019-02-16T06:43:22.729Z,9.53
2019-02-16T06:45:52.258Z,9.43
2019-02-16T06:48:25.345Z,10.13
2019-02-16T06:50:52.309Z,9.47
2019-02-16T06:53:20.006Z,9.70
2019-02-16T06:55:47.653Z,9.27
2019-02-16T06:58:14.439Z,10.13
2019-02-16T07:00:41.879Z,9.87
2019-02-16T07:03:09.576Z,10.27
2019-02-16T07:05:36.361Z,9.90
2019-02-16T07:08:03.135Z,9.43
2019-02-16T07:10:29.800Z,9.87
2019-02-16T07:12:57.949Z,9.93
2019-02-16T07:15:24.989Z,9.23
2019-02-16T07:17:53.208Z,9.57
2019-02-16T07:20:20.013Z,9.30
2019-02-16T07:22:47.602Z,10.17
2019-02-16T07:25:14.448Z,9.07
2019-02-16T07:27:43.176Z,8.57
2019-02-16T07:30:10.236Z,9.20
2019-02-16T07:32:37.011Z,8.70
2019-02-16T07:35:04.083Z,9.17
2019-02-16T07:37:31.327Z,8.80
2019-02-16T07:39:58.060Z,8.97
2019-02-16T07:42:25.035Z,8.73
2019-02-16T07:44:54.614Z,8.53
2019-02-16T07:47:22.367Z,8.60
2019-02-16T07:49:54.008Z,9.07
2019-02-16T07:52:26.613Z,8.60
2019-02-16T07:54:53.506Z,7.97
2019-02-16T07:57:25.419Z,7.20
2019-02-16T07:59:56.151Z,7.70
2019-02-16T08:02:34.604Z,7.60
2019-02-16T08:05:03.110Z,7.10
2019-02-16T08:10:37.577Z,8.88
2019-02-16T08:13:14.264Z,8.10
2019-02-16T08:15:42.029Z,8.00
2019-02-16T08:18:10.715Z,7.70
2019-02-16T08:20:41.449Z,7.63
2019-02-16T08:23:12.389Z,8.00
2019-02-16T08:28:34.334Z,8.93
2019-02-16T08:31:06.094Z,8.07
2019-02-16T08:33:37.691Z,7.63
2019-02-16T08:36:07.201Z,7.60
2019-02-16T08:41:37.298Z,8.32
2019-02-16T08:44:04.136Z,7.50
2019-02-16T08:46:40.399Z,7.10
2019-02-16T08:49:13.592Z,7.37
2019-02-16T08:51:42.051Z,6.97
2019-02-16T08:54:10.960Z,7.53
2019-02-16T08:56:58.163Z,6.93
2019-02-16T08:59:25.763Z,6.93
2019-02-16T09:01:52.517Z,7.33
2019-02-16T09:04:20.024Z,6.73
2019-02-16T09:09:55.307Z,8.25
2019-02-16T09:12:22.968Z,6.67
2019-02-16T09:15:00.667Z,6.87
2019-02-16T09:17:31.091Z,7.30
2019-02-16T09:19:57.817Z,6.70
2019-02-16T09:22:40.154Z,7.63
2019-02-16T09:25:12.851Z,6.70
2019-02-16T09:27:55.517Z,6.80
2019-02-16T09:30:26.307Z,7.47
2019-02-16T09:32:59.867Z,7.10
2019-02-16T09:35:27.635Z,6.63
2019-02-16T09:37:56.368Z,7.50
2019-02-16T09:40:23.076Z,6.67
2019-02-16T09:42:49.908Z,7.00
2019-02-16T09:45:20.692Z,6.90
2019-02-16T09:47:49.524Z,6.47
2019-02-16T09:50:18.287Z,7.03
2019-02-16T09:52:47.653Z,6.93
2019-02-16T09:55:16.349Z,7.10
2019-02-16T10:00:40.912Z,8.27
2019-02-16T10:03:13.594Z,6.43
2019-02-16T10:05:40.537Z,7.73
2019-02-16T10:08:13.524Z,6.83
2019-02-16T10:10:42.209Z,7.13
2019-02-16T10:13:11.917Z,6.93
2019-02-16T10:15:42.449Z,6.90
2019-02-16T10:21:15.153Z,7.87
2019-02-16T10:23:43.841Z,6.57
2019-02-16T10:26:17.747Z,6.77
2019-02-16T10:31:57.303Z,8.02
2019-02-16T10:34:34.901Z,7.77
2019-02-16T10:37:02.630Z,7.23
2019-02-16T10:39:36.073Z,6.90
2019-02-16T10:42:05.873Z,6.70
2019-02-16T10:44:41.368Z,6.70
2019-02-16T10:47:12.146Z,6.03
2019-02-16T10:49:46.053Z,5.97
2019-02-16T10:52:15.391Z,6.20
2019-02-16T10:54:46.973Z,7.07
2019-02-16T10:57:13.768Z,6.70
2019-02-16T10:59:54.522Z,6.60
2019-02-16T11:02:24.911Z,6.73
2019-02-16T11:04:52.550Z,6.80
2019-02-16T11:07:23.391Z,6.37
2019-02-16T11:09:51.063Z,6.67
2019-02-16T11:12:33.629Z,6.50
2019-02-16T11:15:00.597Z,7.17
2019-02-16T11:17:31.222Z,7.33
2019-02-16T11:19:59.879Z,7.53
2019-02-16T11:22:31.646Z,6.83
2019-02-16T11:25:14.363Z,7.57
2019-02-16T11:27:46.124Z,6.70
2019-02-16T11:30:13.926Z,6.77
2019-02-16T11:32:40.692Z,7.97
2019-02-16T11:35:23.394Z,7.43
2019-02-16T11:37:55.302Z,7.87
2019-02-16T11:40:29.724Z,7.17
2019-02-16T11:42:59.646Z,7.50
2019-02-16T11:45:39.077Z,7.23
2019-02-16T11:48:20.870Z,7.47
2019-02-16T11:53:48.043Z,8.55
2019-02-16T11:56:14.885Z,8.13
2019-02-16T11:58:57.294Z,8.07
2019-02-16T12:01:33.969Z,8.80
2019-02-16T12:04:07.774Z,8.60
2019-02-16T12:06:39.740Z,7.47
2019-02-16T12:09:07.607Z,8.60
2019-02-16T12:11:51.103Z,8.13
2019-02-16T12:14:33.443Z,8.33
2019-02-16T12:17:03.244Z,9.23
2019-02-16T12:22:25.411Z,10.55
2019-02-16T12:25:09.890Z,10.10
2019-02-16T12:27:37.628Z,10.27
2019-02-16T12:30:28.843Z,10.33
2019-02-16T12:32:56.708Z,11.37
2019-02-16T12:35:23.553Z,10.57
2019-02-16T12:37:52.139Z,12.13
2019-02-16T12:40:18.977Z,11.47
2019-02-16T12:42:46.767Z,11.37
2019-02-16T12:45:13.587Z,11.23
2019-02-16T12:47:59.286Z,11.53
2019-02-16T12:50:32.265Z,11.10
2019-02-16T12:53:07.397Z,11.87
2019-02-16T12:58:29.917Z,14.18
2019-02-16T13:01:02.948Z,12.20
2019-02-16T13:03:34.599Z,11.53
2019-02-16T13:06:07.486Z,11.47
2019-02-16T13:08:34.327Z,12.17
2019-02-16T13:11:02.816Z,12.03
2019-02-16T13:13:34.576Z,11.90
2019-02-16T13:16:12.015Z,12.63
2019-02-16T13:18:39.929Z,12.20
2019-02-16T13:21:08.391Z,13.40
2019-02-16T13:23:45.808Z,12.33
2019-02-16T13:26:12.847Z,11.60
2019-02-16T13:28:50.543Z,12.90
2019-02-16T13:31:18.281Z,12.93
2019-02-16T13:33:50.696Z,12.47
2019-02-16T13:36:21.285Z,12.77
2019-02-16T13:38:54.243Z,12.50
2019-02-16T13:41:30.858Z,12.20
2019-02-16T13:44:13.181Z,12.33
2019-02-16T13:46:41.957Z,13.60
2019-02-16T13:49:10.752Z,11.80
2019-02-16T13:51:50.491Z,11.60
2019-02-16T13:54:22.562Z,11.33
2019-02-16T13:57:08.442Z,13.50
2019-02-16T13:59:36.335Z,12.17
2019-02-16T14:04:57.554Z,14.75
2019-02-16T14:07:27.366Z,13.43
2019-02-16T14:10:00.452Z,13.77
2019-02-16T14:12:30.166Z,14.37
2019-02-16T14:14:59.874Z,14.70
2019-02-16T14:17:33.785Z,14.17
2019-02-16T14:20:00.730Z,14.40
2019-02-16T14:22:28.288Z,14.87
2019-02-16T14:24:55.231Z,15.13
2019-02-16T14:27:21.978Z,14.07
2019-02-16T14:29:48.711Z,14.53
2019-02-16T14:32:16.180Z,15.03
2019-02-16T14:34:43.015Z,15.47
2019-02-16T14:37:12.565Z,15.47
2019-02-16T14:39:39.250Z,15.47
2019-02-16T14:42:06.640Z,15.53
2019-02-16T14:44:33.352Z,15.80
2019-02-16T14:47:00.819Z,14.93
2019-02-16T14:49:27.546Z,14.83
2019-02-16T14:51:54.277Z,16.43
2019-02-16T14:54:21.796Z,15.47
2019-02-16T14:56:49.337Z,14.00
2019-02-16T14:59:16.101Z,13.43
2019-02-16T15:01:42.786Z,13.97
2019-02-16T15:04:10.187Z,14.63
2019-02-16T15:06:36.933Z,14.73
2019-02-16T15:09:05.098Z,15.43
2019-02-16T15:11:31.828Z,15.00
2019-02-16T15:13:59.823Z,16.40
2019-02-16T15:16:26.638Z,16.07
2019-02-16T15:18:53.417Z,16.23
2019-02-16T15:21:21.324Z,14.30
2019-02-16T15:23:48.625Z,15.93
2019-02-16T15:26:15.484Z,16.50
2019-02-16T15:28:42.186Z,16.37
2019-02-16T15:31:09.433Z,16.67
2019-02-16T15:33:36.326Z,16.67
2019-02-16T15:36:03.142Z,16.20
2019-02-16T15:38:30.262Z,15.80
2019-02-16T15:40:56.986Z,17.37
2019-02-16T15:43:24.112Z,17.40
2019-02-16T15:45:51.396Z,17.63
2019-02-16T15:48:18.144Z,19.13
2019-02-16T15:50:44.955Z,19.10
2019-02-16T15:53:13.385Z,19.10
2019-02-16T15:55:40.244Z,19.57
2019-02-16T15:58:07.044Z,18.50
2019-02-16T16:00:33.850Z,19.30
2019-02-16T16:03:00.598Z,19.47
2019-02-16T16:05:28.144Z,20.23
2019-02-16T16:10:56.603Z,24.05
2019-02-16T16:13:29.196Z,21.40
2019-02-16T16:15:58.134Z,20.10
2019-02-16T16:21:24.887Z,25.67
2019-02-16T16:23:53.832Z,22.00
2019-02-16T16:26:23.404Z,20.77
2019-02-16T16:31:44.202Z,25.52
2019-02-16T16:34:18.098Z,21.63
2019-02-16T16:37:01.644Z,20.40
2019-02-16T16:39:29.662Z,20.63
2019-02-16T16:41:57.533Z,19.60
2019-02-16T16:44:31.294Z,20.87
2019-02-16T16:47:05.226Z,20.83
2019-02-16T16:49:38.572Z,21.83
2019-02-16T16:52:09.425Z,22.47
2019-02-16T16:54:50.023Z,21.27
2019-02-16T16:57:26.697Z,22.07
2019-02-16T16:59:58.151Z,21.90
2019-02-16T17:02:43.378Z,21.93
2019-02-16T17:05:11.240Z,21.67
2019-02-16T17:10:36.199Z,25.95
2019-02-16T17:13:05.637Z,21.57
2019-02-16T17:15:48.081Z,21.57
2019-02-16T17:18:20.211Z,20.50
2019-02-16T17:21:02.675Z,21.43
2019-02-16T17:26:43.094Z,27.60
2019-02-16T17:29:10.667Z,22.13
2019-02-16T17:31:42.696Z,24.00
2019-02-16T17:34:29.342Z,22.43
2019-02-16T17:37:03.195Z,22.50
2019-02-16T17:42:35.514Z,27.02
2019-02-16T17:45:18.123Z,22.83
2019-02-16T17:47:51.425Z,22.53
2019-02-16T17:50:19.014Z,22.67
2019-02-16T17:52:47.107Z,21.97
2019-02-16T17:55:14.592Z,21.93
2019-02-16T17:57:57.325Z,22.13
2019-02-16T18:00:36.282Z,22.47
2019-02-16T18:03:10.244Z,23.17
2019-02-16T18:08:28.981Z,27.80
2019-02-16T18:11:11.597Z,22.80
2019-02-16T18:16:47.297Z,27.27
2019-02-16T18:19:16.836Z,23.87
2019-02-16T18:21:43.592Z,22.30
2019-02-16T18:24:28.639Z,23.23
2019-02-16T18:27:01.831Z,22.90
2019-02-16T18:29:34.964Z,24.13
2019-02-16T18:32:07.874Z,21.80
2019-02-16T18:34:40.741Z,22.43
2019-02-16T18:37:08.665Z,24.43
2019-02-16T18:39:37.383Z,22.80
2019-02-16T18:42:09.946Z,21.50
2019-02-16T18:44:42.698Z,21.80
2019-02-16T18:47:27.335Z,22.60
2019-02-16T18:52:49.488Z,29.17
2019-02-16T18:55:17.099Z,23.63
2019-02-16T19:00:51.036Z,27.62
2019-02-16T19:03:24.176Z,22.80
2019-02-16T19:05:55.534Z,23.27
2019-02-16T19:08:39.846Z,22.00
2019-02-16T19:11:12.884Z,22.50
2019-02-16T19:13:39.724Z,22.53
2019-02-16T19:19:03.207Z,30.27
2019-02-16T19:21:46.403Z,22.63
2019-02-16T19:24:29.048Z,21.73
2019-02-16T19:26:55.931Z,22.97
2019-02-16T19:29:24.591Z,23.57
2019-02-16T19:34:30.861Z,24.37
2019-02-16T19:37:01.694Z,23.53
2019-02-16T19:39:31.531Z,24.00
2019-02-16T19:42:04.452Z,23.90
2019-02-16T19:47:25.115Z,31.35
2019-02-16T19:50:02.808Z,23.03
2019-02-16T19:52:35.386Z,22.23
2019-02-16T19:55:02.245Z,23.47
2019-02-16T19:57:31.929Z,23.87
2019-02-16T20:00:18.184Z,23.97
2019-02-16T20:02:44.878Z,24.17
2019-02-16T20:08:19.686Z,31.15
2019-02-16T20:10:52.446Z,24.27
2019-02-16T20:13:21.300Z,23.20
2019-02-16T20:15:51.831Z,23.57
2019-02-16T20:18:18.877Z,21.93
2019-02-16T20:20:50.734Z,22.80
2019-02-16T20:23:18.911Z,22.83
2019-02-16T20:28:41.880Z,28.83
2019-02-16T20:31:10.978Z,22.70
2019-02-16T20:33:38.023Z,21.50
2019-02-16T20:36:05.686Z,21.57
2019-02-16T20:38:33.347Z,22.80
2019-02-16T20:41:01.114Z,22.50
2019-02-16T20:43:28.367Z,20.23
2019-02-16T20:45:55.170Z,20.70
2019-02-16T20:48:28.094Z,20.33
2019-02-16T20:51:00.979Z,21.17
2019-02-16T20:53:45.639Z,21.90
2019-02-16T20:56:13.241Z,20.40
2019-02-16T20:58:39.934Z,19.87
2019-02-16T21:01:20.242Z,20.27
2019-02-16T21:03:49.606Z,21.83
2019-02-16T21:06:22.393Z,20.43
2019-02-16T21:08:55.211Z,19.40
2019-02-16T21:11:24.873Z,20.30
2019-02-16T21:14:03.563Z,19.63
2019-02-16T21:16:36.456Z,18.97
2019-02-16T21:19:19.968Z,18.83
2019-02-16T21:21:59.632Z,18.23
2019-02-16T21:24:32.073Z,18.53
2019-02-16T21:27:02.901Z,19.03
2019-02-16T21:29:33.612Z,18.73
2019-02-16T21:34:59.365Z,23.35
2019-02-16T21:37:28.864Z,18.20
2019-02-16T21:40:00.559Z,18.63
2019-02-16T21:42:32.552Z,16.20
2019-02-16T21:45:05.395Z,17.60
2019-02-16T21:47:37.005Z,16.47
2019-02-16T21:50:04.769Z,16.57
2019-02-16T21:52:46.466Z,16.23
2019-02-16T21:55:18.233Z,16.87
2019-02-16T21:57:51.206Z,15.77
2019-02-16T22:00:33.619Z,15.00
2019-02-16T22:05:59.495Z,21.05
2019-02-16T22:08:32.335Z,16.50
2019-02-16T22:13:50.595Z,20.45
2019-02-16T22:16:18.049Z,15.13
2019-02-16T22:18:45.971Z,14.80
2019-02-16T22:21:12.764Z,15.03
2019-02-16T22:23:39.504Z,14.83
2019-02-16T22:26:06.195Z,14.30
2019-02-16T22:28:32.836Z,14.97
2019-02-16T22:30:59.572Z,13.00
2019-02-16T22:33:26.240Z,14.57
2019-02-16T22:35:54.774Z,13.50
2019-02-16T22:38:21.615Z,14.17
2019-02-16T22:40:48.301Z,14.00
2019-02-16T22:43:15.000Z,13.87
2019-02-16T22:45:42.577Z,15.00
2019-02-16T22:48:09.630Z,14.10
2019-02-16T22:50:36.317Z,13.73
2019-02-16T22:53:03.040Z,13.20
2019-02-16T22:55:30.505Z,13.37
2019-02-16T22:57:57.910Z,13.47
2019-02-16T23:00:26.950Z,14.07
2019-02-16T23:02:53.852Z,13.87
2019-02-16T23:05:20.630Z,14.00
2019-02-16T23:07:48.200Z,13.37
2019-02-16T23:10:14.902Z,13.47
2019-02-16T23:12:41.803Z,14.07
2019-02-16T23:15:08.523Z,13.53
2019-02-16T23:17:36.004Z,13.03
2019-02-16T23:20:03.515Z,13.07
2019-02-16T23:22:30.287Z,14.53
2019-02-16T23:24:57.035Z,13.63
2019-02-16T23:27:24.456Z,13.17
2019-02-16T23:29:51.174Z,13.07
2019-02-16T23:32:18.613Z,13.33
2019-02-16T23:34:45.324Z,12.37
2019-02-16T23:37:13.643Z,12.30
2019-02-16T23:39:40.407Z,12.10
2019-02-16T23:42:07.102Z,11.77
2019-02-16T23:44:35.933Z,11.33
2019-02-16T23:47:02.710Z,11.53
2019-02-16T23:49:29.406Z,11.07
2019-02-16T23:51:56.138Z,11.33
2019-02-16T23:54:23.802Z,12.37
2019-02-16T23:56:50.464Z,11.83
2019-02-16T23:59:18.384Z,10.63
